• Join FlightAware (Why Join?)
  • Login
  • US Flag 
12:03PM EDT


 

Airport Tracker/Info


-or-


 

Live Flight TrackerFlight Track Log ✈ PDT4458 ✈ 24-Apr-2013 ✈ KPHL - KLGA

Flight Track Log - Related Links

Times and Time Zones

All times are in EDT time to prevent confusion due to time zone crossing. See the PDT4458 flight status page for this flight to view local times or setup timezone preferences in your user account.

Time Position Orientation Groundspeed Altitude Reporting Facility
EDT Latitude Longitude Course Direction KTS MPH feet Rate Location/Type
03:58PM 39.8578 -75.2708 37° Northeast 124 143 800  Level FAA TRACON SMA TRACON (SMA)
03:59PM 39.8456 -75.2750 195° South 115 132 1,400 1,620 Climbing FAA TRACON SMA TRACON (SMA)
03:59PM 39.8350 -75.2806 202° Southwest 121 139 1,900 1,440 Climbing FAA TRACON SMA TRACON (SMA)
03:59PM 39.8222 -75.2856 197° South 125 144 2,400 1,020 Climbing FAA TRACON SMA TRACON (SMA)
04:00PM 39.8122 -75.2894 197° South 122 140 2,600 600 Climbing FAA TRACON SMA TRACON (SMA)
04:00PM 39.8056 -75.2758 123° Southeast 147 169 2,800 540 Climbing FAA TRACON SMA TRACON (SMA)
04:00PM 39.8139 -75.2558 62° Northeast 180 207 3,000 900 Climbing FAA TRACON SMA TRACON (SMA)
04:01PM 39.8500 -75.0303 90° East  Level FlightAware Approximate
04:01PM 39.8242 -75.2397 50° Northeast 179 206 3,400  Level FAA TRACON SMA TRACON (SMA)
04:01PM 39.8336 -75.2247 51° Northeast 176 203 3,700 840 Climbing FAA TRACON SMA TRACON (SMA)
04:01PM 39.8431 -75.2042 59° Northeast 174 200 4,000 840 Climbing FAA TRACON SMA TRACON (SMA)
04:02PM 39.8591 -74.9652 57° Northeast  Level FlightAware Approximate
04:02PM 39.8508 -75.1850 62° Northeast 187 215 4,300  Level FAA TRACON SMA TRACON (SMA)
04:02PM 39.8611 -75.1619 60° Northeast 193 222 4,700 1,020 Climbing FAA TRACON SMA TRACON (SMA)
04:02PM 39.8706 -75.1442 55° Northeast 195 224 5,000 900 Climbing FAA TRACON SMA TRACON (SMA)
04:03PM 39.8930 -74.9140 57° Northeast  Level FlightAware Approximate
04:03PM 39.8808 -75.1267 53° Northeast 200 230 5,300  Level FAA TRACON SMA TRACON (SMA)
04:03PM 39.8950 -75.1053 49° Northeast 199 229 5,600 900 Climbing FAA TRACON SMA TRACON (SMA)
04:03PM 39.9056 -75.0878 52° Northeast 202 232 5,900 900 Climbing FAA TRACON SMA TRACON (SMA)
04:04PM 39.9316 -74.8684 37° Northeast  Level FlightAware Approximate
04:04PM 39.9158 -75.0697 53° Northeast 206 237 6,200  Level FAA TRACON SMA TRACON (SMA)
04:04PM 39.9261 -75.0483 58° Northeast 208 239 6,400 720 Climbing FAA TRACON SMA TRACON (SMA)
04:04PM 39.9369 -75.0228 61° Northeast 214 246 6,700 900 Climbing FAA TRACON SMA TRACON (SMA)
04:05PM 39.9458 -75.0017 61° Northeast 218 251 7,000 1,020 Climbing FAA TRACON SMA TRACON (SMA)
04:05PM 39.9536 -74.9811 64° Northeast 217 250 7,400 960 Climbing FAA TRACON SMA TRACON (SMA)
04:06PM 39.9742 -74.9333 61° Northeast 211 243 8,000 600 Climbing FAA TRACON SMA TRACON (SMA)
04:06PM 39.9847 -74.9125 57° Northeast 227 261 8,000  Level FAA TRACON SMA TRACON (SMA)
04:06PM 39.9972 -74.8881 56° Northeast 234 269 8,000  Level FAA TRACON SMA TRACON (SMA)
04:07PM 40.0256 -74.8303 57° Northeast 259 298 8,000  Level FAA TRACON SMA TRACON (SMA)
04:07PM 40.0358 -74.8092 58° Northeast 261 300 8,000  Level FAA TRACON SMA TRACON (SMA)
04:08PM 40.0511 -74.7806 55° Northeast 266 306 8,000  Level FAA TRACON SMA TRACON (SMA)
04:08PM 40.0650 -74.7561 53° Northeast 270 311 8,000  Level FAA TRACON SMA TRACON (SMA)
04:08PM 40.0819 -74.7253 54° Northeast 271 312 8,000  Level FAA TRACON SMA TRACON (SMA)
04:09PM 40.0950 -74.7000 56° Northeast 272 313 8,000  Level FAA TRACON SMA TRACON (SMA)
04:09PM 40.1072 -74.6733 59° Northeast 274 315 8,000  Level FAA TRACON SMA TRACON (SMA)
04:09PM 40.1222 -74.6397 60° Northeast 276 318 8,000  Level FAA TRACON SMA TRACON (SMA)
04:10PM 40.1339 -74.6139 59° Northeast 276 318 8,000  Level FAA TRACON SMA TRACON (SMA)
04:10PM 40.1472 -74.5872 57° Northeast 276 318 8,000  Level FAA TRACON SMA TRACON (SMA)
04:10PM 40.1628 -74.5606 53° Northeast 276 318 8,000  Level FAA TRACON SMA TRACON (SMA)
04:11PM 40.1803 -74.5336 50° Northeast 272 313 8,000  Level FAA TRACON SMA TRACON (SMA)
04:11PM 40.1908 -74.5122 57° Northeast 273 314 8,000  Level FAA TRACON SMA TRACON (SMA)
04:11PM 40.2094 -74.4842 49° Northeast 257 296 8,000  Level FAA TRACON SMA TRACON (SMA)
04:12PM 40.2272 -74.4642 41° Northeast 249 287 8,000  Level FAA TRACON SMA TRACON (SMA)
04:12PM 40.2431 -74.4458 41° Northeast 246 283 8,000  Level FAA TRACON SMA TRACON (SMA)
04:12PM 40.2600 -74.4242 44° Northeast 244 281 8,000  Level FAA TRACON SMA TRACON (SMA)
04:13PM 40.2750 -74.4011 50° Northeast 242 278 8,000 -180 Level FAA TRACON SMA TRACON (SMA)
04:13PM 40.2886 -74.3806 49° Northeast 243 280 7,900 -780 Descending FAA TRACON SMA TRACON (SMA)
04:13PM 40.3033 -74.3544 54° Northeast 247 284 7,500 -1,080 Descending FAA TRACON SMA TRACON (SMA)
04:14PM 40.3189 -74.3303 50° Northeast 253 291 7,200 -780 Descending FAA TRACON SMA TRACON (SMA)
04:14PM 40.3336 -74.3086 48° Northeast 257 296 7,000 -300 Descending FAA TRACON SMA TRACON (SMA)
04:14PM 40.3372 -74.3031 50° Northeast 257 296 7,000  Level FAA TRACON SMA TRACON (SMA)
04:15PM 40.4000 -74.2167 46° Northeast 246 283 7,000  Level New York TRACON
04:16PM 40.4500 -74.1667 37° Northeast 241 277 7,000  Level New York TRACON
04:17PM 40.5000 -74.1000 45° Northeast 233 268 7,000 -960 Level New York TRACON
04:18PM 40.5500 -74.0667 27° Northeast 231 266 5,100 -1,500 Descending New York TRACON
04:19PM 40.6167 -74.0500 11° North 230 265 4,000 -600 Descending New York TRACON
04:20PM 40.6667 -74.0333 14° North 207 238 4,000  Level New York TRACON
04:21PM 40.7333 -74.0333 360° North 204 235 4,000  Level New York TRACON
04:22PM 40.7833 -74.0000 27° Northeast 220 253 4,000  Level New York TRACON
04:23PM 40.8333 -73.9500 37° Northeast 218 251 4,000  Level New York TRACON
04:24PM 40.8833 -73.9000 37° Northeast 224 258 4,000  Level New York TRACON
04:25PM 40.9333 -73.8333 45° Northeast 231 266 4,000 -360 Level New York TRACON
04:26PM 40.9833 -73.7833 37° Northeast 228 262 3,300 -540 Descending New York TRACON
04:27PM 40.9667 -73.7333 114° Southeast 205 236 3,000 -180 Descending New York TRACON
04:28PM 40.9333 -73.7500 201° Southwest 149 171 3,000  Level New York TRACON